Time;durP1;ratioP1;P1;durP2;ratioP2;P2;SDS_P1;SDS_P2;PMS_P1;PMS_P2;Temp;Humidity;BMP_temperature;BMP_pressure;BME280_temperature;BME280_humidity;BME280_pressure;Samples;Min_cycle;Max_cycle;Signal;HPM_P1;HPM_P2
2022/10/18 00:01:02;;;;;;;47.10;19.50;;;11.70;99.90;;;;;;5034065;28;20045;-65
2022/10/18 00:03:27;;;;;;;38.42;18.73;;;11.90;99.90;;;;;;5019462;28;20094;-65
2022/10/18 00:05:53;;;;;;;47.45;20.63;;;12.00;99.90;;;;;;5016888;28;20040;-65
2022/10/18 00:08:19;;;;;;;51.38;21.80;;;11.80;99.90;;;;;;5024199;28;20045;-66
2022/10/18 00:10:46;;;;;;;56.78;23.00;;;11.80;99.90;;;;;;5015082;28;20483;-65
2022/10/18 00:13:12;;;;;;;61.00;23.17;;;11.90;99.90;;;;;;5040787;28;20040;-65
2022/10/18 00:15:38;;;;;;;62.60;24.48;;;12.10;99.90;;;;;;5044289;28;20052;-65
2022/10/18 00:18:03;;;;;;;119.47;31.02;;;12.00;99.90;;;;;;5040560;28;20036;-65
2022/10/18 00:20:29;;;;;;;91.22;26.67;;;11.90;99.90;;;;;;5030464;28;20453;-65
2022/10/18 00:22:55;;;;;;;71.65;25.50;;;11.90;99.90;;;;;;5045367;28;20186;-65
2022/10/18 00:25:20;;;;;;;51.67;24.38;;;12.00;99.90;;;;;;5047232;28;20357;-65
2022/10/18 00:27:46;;;;;;;51.35;22.73;;;11.90;99.90;;;;;;5045023;28;20033;-65
2022/10/18 00:30:11;;;;;;;118.28;27.25;;;12.20;99.90;;;;;;5041804;28;20056;-65
2022/10/18 00:32:39;;;;;;;94.70;29.30;;;11.90;99.90;;;;;;5043798;28;20087;-65
2022/10/18 00:35:05;;;;;;;57.97;23.58;;;12.00;99.90;;;;;;5028872;28;20502;-65
2022/10/18 00:37:32;;;;;;;120.65;30.60;;;12.00;99.90;;;;;;5021841;28;20037;-65
2022/10/18 00:39:58;;;;;;;60.28;23.83;;;12.10;99.90;;;;;;5027107;28;20061;-65
2022/10/18 00:42:28;;;;;;;63.97;24.30;;;11.90;99.90;;;;;;5016432;28;20052;-65
2022/10/18 00:45:02;;;;;;;;;;;11.80;99.90;;;;;;5025590;28;20041;-65
2022/10/18 00:47:28;;;;;;;54.88;22.50;;;12.00;99.90;;;;;;5022524;28;19917;-65
2022/10/18 00:49:56;;;;;;;57.58;23.15;;;12.00;99.90;;;;;;5043841;28;20395;-65
2022/10/18 00:52:46;;;;;;;42.10;19.30;;;11.80;99.90;;;;;;5044905;28;20037;-65
2022/10/18 00:55:12;;;;;;;41.47;19.65;;;12.10;99.90;;;;;;5035358;28;20049;-65
2022/10/18 00:57:40;;;;;;;48.78;21.00;;;11.80;99.90;;;;;;5024116;28;20073;-65
2022/10/18 01:00:08;;;;;;;56.72;23.67;;;11.80;99.90;;;;;;5043651;28;20120;-66
2022/10/18 01:02:35;;;;;;;41.28;18.27;;;11.80;99.90;;;;;;5006868;28;20527;-65
2022/10/18 01:05:01;;;;;;;53.95;19.65;;;11.70;99.90;;;;;;5028787;28;20079;-65
2022/10/18 01:07:45;;;;;;;38.53;18.92;;;11.70;99.90;;;;;;5011293;28;20479;-65
2022/10/18 01:10:17;;;;;;;46.60;19.33;;;11.70;99.90;;;;;;5026301;28;20041;-65
2022/10/18 01:13:09;;;;;;;39.75;17.88;;;11.90;99.90;;;;;;5043725;28;20670;-65
2022/10/18 01:15:56;;;;;;;51.63;20.23;;;11.90;99.90;;;;;;5043213;28;20073;-65
2022/10/18 01:18:34;;;;;;;39.20;19.67;;;11.80;99.90;;;;;;5043411;28;20040;-65
2022/10/18 01:21:40;;;;;;;75.28;24.52;;;11.80;99.90;;;;;;5027424;28;20527;-65
2022/10/18 01:24:24;;;;;;;107.63;25.70;;;12.10;99.90;;;;;;5010292;28;20270;-67
2022/10/18 01:27:02;;;;;;;50.90;22.70;;;11.80;99.90;;;;;;5015574;28;20152;-65
2022/10/18 01:30:02;;;;;;;71.57;23.33;;;11.90;99.90;;;;;;5023693;28;20340;-66
2022/10/18 01:32:33;;;;;;;63.30;23.55;;;12.00;99.90;;;;;;5020456;28;20083;-65
2022/10/18 01:35:04;;;;;;;55.67;22.02;;;11.90;99.90;;;;;;5041475;28;20048;-65
2022/10/18 01:37:31;;;;;;;44.88;20.27;;;11.90;99.90;;;;;;5022175;28;20048;-65
2022/10/18 01:39:58;;;;;;;41.97;18.75;;;11.70;99.90;;;;;;5046989;28;20097;-65
2022/10/18 01:42:25;;;;;;;48.30;19.65;;;11.80;99.90;;;;;;5037740;28;20106;-65
2022/10/18 01:44:52;;;;;;;89.82;26.40;;;11.70;99.90;;;;;;5042398;28;20037;-66
2022/10/18 01:47:19;;;;;;;47.00;20.98;;;11.70;99.90;;;;;;5040736;28;20042;-65
2022/10/18 01:49:45;;;;;;;119.40;29.58;;;11.80;99.90;;;;;;5046968;28;20091;-65
2022/10/18 01:52:15;;;;;;;43.05;19.63;;;11.90;99.90;;;;;;5046510;28;20037;-65
2022/10/18 01:54:47;;;;;;;50.10;20.52;;;11.70;99.90;;;;;;5009842;28;20033;-65
2022/10/18 01:57:52;;;;;;;45.03;21.02;;;11.70;99.90;;;;;;5020461;28;20051;-65
2022/10/18 02:00:22;;;;;;;87.57;25.50;;;11.70;99.90;;;;;;5009922;28;20464;-66
2022/10/18 02:02:57;;;;;;;96.18;30.20;;;11.70;99.90;;;;;;5044292;28;20037;-65
2022/10/18 02:05:55;;;;;;;65.32;23.83;;;11.70;99.90;;;;;;5040292;28;20384;-65
2022/10/18 02:08:31;;;;;;;101.47;29.25;;;12.00;99.90;;;;;;5022184;28;20140;-65
2022/10/18 02:11:01;;;;;;;113.82;31.52;;;11.70;99.90;;;;;;5039351;28;20069;-65
2022/10/18 02:13:42;;;;;;;169.38;36.13;;;12.00;99.90;;;;;;5002140;28;20443;-65
2022/10/18 02:16:16;;;;;;;63.80;25.98;;;12.10;99.90;;;;;;5021346;28;20449;-65
2022/10/18 02:18:56;;;;;;;64.88;25.15;;;12.00;99.90;;;;;;5024228;28;20047;-65
2022/10/18 02:21:24;;;;;;;163.30;37.63;;;12.10;99.90;;;;;;5029872;28;20049;-65
2022/10/18 02:23:51;;;;;;;107.30;30.55;;;11.90;99.90;;;;;;5040303;28;20437;-66
2022/10/18 02:26:17;;;;;;;55.03;23.90;;;11.90;99.90;;;;;;5042765;28;20037;-65
2022/10/18 02:28:43;;;;;;;60.13;25.27;;;11.70;99.90;;;;;;5018761;28;20431;-66
2022/10/18 02:31:22;;;;;;;74.40;26.60;;;11.90;99.90;;;;;;5039462;28;20148;-66
2022/10/18 02:33:59;;;;;;;61.15;26.58;;;12.10;99.90;;;;;;5038802;28;20098;-65
2022/10/18 02:36:34;;;;;;;113.95;31.55;;;12.00;99.90;;;;;;5030394;28;20041;-66
2022/10/18 02:39:08;;;;;;;62.13;25.55;;;11.70;99.90;;;;;;5020874;28;20090;-65
2022/10/18 02:41:34;;;;;;;55.72;23.88;;;11.90;99.90;;;;;;5045615;28;20041;-66
2022/10/18 02:43:59;;;;;;;60.70;25.65;;;11.70;99.90;;;;;;5046391;28;20051;-66
2022/10/18 02:46:25;;;;;;;66.55;25.00;;;12.00;99.90;;;;;;5043947;28;20121;-66
2022/10/18 02:48:50;;;;;;;112.00;28.63;;;11.70;99.90;;;;;;5028134;28;20045;-65
2022/10/18 02:51:16;;;;;;;53.75;24.80;;;11.80;99.90;;;;;;5032137;28;20041;-66
2022/10/18 02:53:42;;;;;;;54.20;23.85;;;11.60;99.90;;;;;;5048558;28;20064;-65
2022/10/18 02:56:08;;;;;;;223.55;42.45;;;11.70;99.90;;;;;;5026925;28;20067;-65
2022/10/18 02:58:33;;;;;;;295.23;47.85;;;11.90;99.90;;;;;;5026202;28;20052;-65
2022/10/18 03:00:59;;;;;;;153.85;37.65;;;12.10;99.90;;;;;;5025872;28;20534;-65
2022/10/18 03:03:24;;;;;;;160.68;32.92;;;12.10;99.90;;;;;;5026041;28;20647;-66
2022/10/18 03:05:51;;;;;;;355.13;53.03;;;12.10;99.90;;;;;;5011221;28;20056;-65
2022/10/18 03:08:17;;;;;;;201.75;40.78;;;12.10;99.90;;;;;;5044124;28;20103;-66
2022/10/18 03:10:43;;;;;;;299.00;47.33;;;11.90;99.90;;;;;;5030507;28;20040;-65
2022/10/18 03:13:09;;;;;;;151.98;35.72;;;11.90;99.90;;;;;;5029041;28;20322;-65
2022/10/18 03:15:35;;;;;;;156.57;35.95;;;12.30;99.90;;;;;;5043064;28;20114;-66
2022/10/18 03:18:00;;;;;;;125.93;33.17;;;12.20;99.90;;;;;;5026980;28;20060;-65
2022/10/18 03:20:26;;;;;;;345.90;53.20;;;11.90;99.90;;;;;;5050236;28;20168;-66
2022/10/18 03:22:51;;;;;;;130.10;32.40;;;12.20;99.90;;;;;;5047548;28;20037;-66
2022/10/18 03:25:17;;;;;;;77.60;28.05;;;12.00;99.90;;;;;;5028455;28;20037;-66
2022/10/18 03:27:42;;;;;;;177.52;35.92;;;12.20;99.90;;;;;;5041308;28;20045;-65
2022/10/18 03:30:10;;;;;;;129.07;32.67;;;12.40;99.90;;;;;;5046453;28;20120;-65
2022/10/18 03:32:36;;;;;;;87.68;28.33;;;12.20;99.90;;;;;;5029063;28;20052;-65
2022/10/18 03:35:03;;;;;;;89.03;28.27;;;12.30;99.90;;;;;;5045038;28;20472;-65
2022/10/18 03:37:29;;;;;;;91.50;28.38;;;12.20;99.90;;;;;;5020542;28;20116;-65
2022/10/18 03:39:55;;;;;;;385.80;51.95;;;12.30;99.90;;;;;;5028545;28;20131;-65
2022/10/18 03:42:20;;;;;;;186.15;36.25;;;12.40;99.90;;;;;;5028824;28;20205;-66
2022/10/18 03:44:46;;;;;;;132.55;31.65;;;12.30;99.90;;;;;;5045469;28;20519;-65
2022/10/18 03:47:11;;;;;;;134.55;31.70;;;12.40;99.90;;;;;;5040982;28;20040;-65
2022/10/18 03:49:37;;;;;;;118.97;30.67;;;12.30;99.90;;;;;;5049088;28;20037;-65
2022/10/18 03:52:03;;;;;;;115.43;30.85;;;12.10;99.90;;;;;;5047856;28;20096;-66
2022/10/18 03:54:29;;;;;;;100.50;29.80;;;12.40;99.90;;;;;;5030417;28;20029;-66
2022/10/18 03:56:54;;;;;;;108.18;29.77;;;12.10;99.90;;;;;;5044032;28;20033;-65
2022/10/18 03:59:21;;;;;;;162.68;33.70;;;12.20;99.90;;;;;;5023379;28;20375;-65
2022/10/18 04:01:47;;;;;;;100.80;29.02;;;12.30;99.90;;;;;;5042761;28;20049;-65
2022/10/18 04:04:12;;;;;;;105.88;27.73;;;12.50;99.90;;;;;;5027463;28;20049;-66
2022/10/18 04:06:38;;;;;;;126.97;30.70;;;12.40;99.90;;;;;;5025846;28;20511;-65
2022/10/18 04:09:04;;;;;;;91.10;27.42;;;12.30;99.90;;;;;;5027687;28;20060;-65
2022/10/18 04:11:29;;;;;;;121.35;28.15;;;12.30;99.90;;;;;;5029488;28;20045;-66
2022/10/18 04:13:55;;;;;;;93.40;25.90;;;12.10;99.90;;;;;;5021587;28;20730;-65
2022/10/18 04:16:21;;;;;;;104.97;27.58;;;12.20;99.90;;;;;;5043767;28;20488;-65
2022/10/18 04:18:46;;;;;;;85.35;26.17;;;12.50;99.90;;;;;;5030876;28;20055;-66
2022/10/18 04:21:12;;;;;;;222.13;37.28;;;12.30;99.90;;;;;;5046261;28;20045;-65
2022/10/18 04:23:38;;;;;;;135.60;31.13;;;12.20;99.90;;;;;;5040017;28;20405;-66
2022/10/18 04:26:03;;;;;;;167.70;31.88;;;12.20;99.90;;;;;;5024922;28;20048;-65
2022/10/18 04:28:29;;;;;;;124.75;27.83;;;12.30;99.90;;;;;;5023531;28;20117;-65
2022/10/18 04:30:54;;;;;;;86.10;24.58;;;12.40;99.90;;;;;;5026178;28;20098;-65
2022/10/18 04:33:20;;;;;;;117.53;28.10;;;12.30;99.90;;;;;;5027505;28;20128;-65
2022/10/18 04:35:46;;;;;;;197.07;33.75;;;12.60;99.90;;;;;;5015430;28;20064;-66
2022/10/18 04:38:13;;;;;;;135.77;30.02;;;12.60;99.90;;;;;;5012562;28;20033;-65
2022/10/18 04:40:38;;;;;;;132.77;28.02;;;12.30;99.90;;;;;;5025803;28;20045;-65
2022/10/18 04:43:04;;;;;;;198.85;33.42;;;12.40;99.90;;;;;;5023653;28;20063;-65
2022/10/18 04:45:30;;;;;;;156.90;31.88;;;12.30;99.90;;;;;;5042110;28;20499;-65
2022/10/18 04:47:55;;;;;;;119.13;26.73;;;12.60;99.90;;;;;;5028386;28;20049;-65
2022/10/18 04:50:21;;;;;;;84.68;24.60;;;12.60;99.90;;;;;;5027255;28;20452;-65
2022/10/18 04:52:46;;;;;;;121.53;26.83;;;12.20;99.90;;;;;;5026813;28;20139;-65
2022/10/18 04:55:12;;;;;;;217.25;35.15;;;12.30;99.90;;;;;;5040448;28;20053;-66
2022/10/18 04:57:37;;;;;;;93.25;24.33;;;12.30;99.90;;;;;;5040962;28;20033;-66
2022/10/18 05:00:04;;;;;;;101.13;25.92;;;12.40;99.90;;;;;;5023971;28;20456;-65
2022/10/18 05:02:30;;;;;;;127.22;26.83;;;12.50;99.90;;;;;;5024795;28;20037;-66
2022/10/18 05:04:55;;;;;;;107.82;26.00;;;12.40;99.90;;;;;;5010837;28;20041;-66
2022/10/18 05:07:21;;;;;;;87.78;22.77;;;12.40;99.90;;;;;;5039646;28;20040;-66
2022/10/18 05:09:46;;;;;;;102.50;24.65;;;12.10;99.90;;;;;;5049608;28;20084;-65
2022/10/18 05:12:12;;;;;;;77.63;22.73;;;12.30;99.90;;;;;;5043307;28;20055;-66
2022/10/18 05:14:37;;;;;;;67.32;21.48;;;12.20;99.90;;;;;;5035576;28;20432;-66
2022/10/18 05:17:03;;;;;;;62.63;20.35;;;12.30;99.90;;;;;;5046562;28;20063;-65
2022/10/18 05:19:28;;;;;;;218.07;35.88;;;12.30;99.90;;;;;;5044719;28;20029;-66
2022/10/18 05:21:54;;;;;;;176.50;32.38;;;12.10;99.90;;;;;;5048449;28;20198;-66
2022/10/18 05:24:19;;;;;;;115.43;26.15;;;12.10;99.90;;;;;;5021188;28;20114;-66
2022/10/18 05:26:45;;;;;;;93.45;24.05;;;12.40;99.90;;;;;;5023170;28;20068;-65
2022/10/18 05:29:11;;;;;;;92.85;23.65;;;12.00;99.90;;;;;;5023184;28;20045;-66
2022/10/18 05:31:36;;;;;;;74.47;21.77;;;12.40;99.90;;;;;;5044587;28;20064;-65
2022/10/18 05:34:02;;;;;;;58.47;20.13;;;11.90;99.90;;;;;;5007950;28;20045;-66
2022/10/18 05:36:28;;;;;;;53.03;18.65;;;12.20;99.90;;;;;;5018114;28;20053;-65
2022/10/18 05:38:54;;;;;;;58.20;18.83;;;12.10;99.90;;;;;;5019981;28;20034;-65
2022/10/18 05:41:20;;;;;;;97.65;23.35;;;11.70;99.90;;;;;;5020388;28;20072;-65
2022/10/18 05:43:46;;;;;;;102.95;23.42;;;11.70;99.90;;;;;;5039438;28;20043;-66
2022/10/18 05:46:11;;;;;;;111.95;24.20;;;12.00;99.90;;;;;;5043891;28;20044;-65
2022/10/18 05:48:37;;;;;;;46.17;17.80;;;11.70;99.90;;;;;;5049185;28;20033;-66
2022/10/18 05:51:03;;;;;;;55.88;18.73;;;11.60;99.90;;;;;;5047211;28;20149;-65
2022/10/18 05:53:29;;;;;;;69.05;19.10;;;11.80;99.90;;;;;;5045144;28;20385;-66
2022/10/18 05:55:58;;;;;;;53.10;17.67;;;11.90;99.90;;;;;;5047375;28;20051;-66
2022/10/18 05:58:24;;;;;;;126.63;24.73;;;11.60;99.90;;;;;;5052219;28;20048;-66
2022/10/18 06:00:50;;;;;;;46.08;17.60;;;11.50;99.90;;;;;;5034221;28;20044;-66
2022/10/18 06:03:16;;;;;;;55.47;17.17;;;11.70;99.90;;;;;;5044125;28;20736;-66
2022/10/18 06:05:42;;;;;;;61.28;18.30;;;11.70;99.90;;;;;;5057628;28;20051;-66
2022/10/18 06:08:07;;;;;;;91.90;21.15;;;11.70;99.90;;;;;;5045036;28;20106;-65
2022/10/18 06:10:33;;;;;;;106.57;21.60;;;11.60;99.90;;;;;;5035551;28;20069;-66
2022/10/18 06:12:58;;;;;;;60.78;18.55;;;11.50;99.90;;;;;;5023784;28;20349;-66
2022/10/18 06:15:24;;;;;;;42.17;16.65;;;11.50;99.90;;;;;;5009480;28;20124;-66
2022/10/18 06:17:49;;;;;;;45.08;15.18;;;11.60;99.90;;;;;;5033667;28;20041;-66
2022/10/18 06:20:15;;;;;;;40.15;16.50;;;11.50;99.90;;;;;;5059450;28;20024;-66
2022/10/18 06:22:41;;;;;;;39.78;15.93;;;11.40;99.90;;;;;;5023430;28;20044;-65
2022/10/18 06:25:07;;;;;;;40.28;16.38;;;11.30;99.90;;;;;;5007384;28;20128;-66
2022/10/18 06:27:33;;;;;;;58.72;17.60;;;11.50;99.90;;;;;;5045540;28;20528;-66
2022/10/18 06:29:59;;;;;;;46.20;15.88;;;11.50;99.90;;;;;;5025896;28;20040;-66
2022/10/18 06:32:25;;;;;;;104.78;22.08;;;11.40;99.90;;;;;;5039863;28;20502;-66
2022/10/18 06:34:50;;;;;;;57.45;17.02;;;11.20;99.90;;;;;;5030215;28;20057;-66
2022/10/18 06:37:16;;;;;;;63.20;17.15;;;11.30;99.90;;;;;;5038449;28;20041;-66
2022/10/18 06:39:41;;;;;;;113.80;21.38;;;11.30;99.90;;;;;;5009550;28;20029;-65
2022/10/18 06:42:07;;;;;;;38.72;15.60;;;11.30;99.90;;;;;;5033241;28;20151;-66
2022/10/18 06:44:32;;;;;;;44.05;15.20;;;11.20;99.90;;;;;;5024301;28;20047;-66
2022/10/18 06:46:58;;;;;;;121.85;20.55;;;11.30;99.90;;;;;;5033095;28;20052;-66
2022/10/18 06:49:23;;;;;;;90.32;16.98;;;11.30;99.90;;;;;;5028783;28;20143;-66
2022/10/18 06:51:49;;;;;;;36.33;14.30;;;11.20;99.90;;;;;;5023808;28;20357;-66
2022/10/18 06:54:15;;;;;;;184.85;26.20;;;11.30;99.90;;;;;;5028253;28;20076;-66
2022/10/18 06:56:41;;;;;;;138.52;20.58;;;11.30;99.90;;;;;;5019818;28;20183;-66
2022/10/18 06:59:06;;;;;;;43.33;13.80;;;11.20;99.90;;;;;;5042268;28;20215;-66
2022/10/18 07:01:32;;;;;;;79.82;16.23;;;11.10;99.90;;;;;;5045505;28;20063;-65
2022/10/18 07:03:58;;;;;;;27.25;12.80;;;11.20;99.90;;;;;;5046797;28;20029;-66
2022/10/18 07:06:24;;;;;;;116.53;19.77;;;11.00;99.90;;;;;;5021996;28;20040;-66
2022/10/18 07:08:52;;;;;;;69.30;15.48;;;11.10;99.90;;;;;;5030392;28;20041;-66
2022/10/18 07:11:24;;;;;;;62.38;14.68;;;11.20;99.90;;;;;;5025362;28;20045;-65
2022/10/18 07:13:50;;;;;;;36.20;11.75;;;11.10;99.90;;;;;;5025430;28;20131;-66
2022/10/18 07:16:17;;;;;;;49.92;13.88;;;11.10;99.90;;;;;;5045041;28;20073;-66
2022/10/18 07:18:47;;;;;;;24.67;11.32;;;11.30;99.90;;;;;;5044491;28;20109;-65
2022/10/18 07:21:14;;;;;;;27.90;11.93;;;11.20;99.90;;;;;;5034061;28;20078;-66
2022/10/18 07:23:41;;;;;;;32.28;11.93;;;11.10;99.90;;;;;;5043277;28;20455;-66
2022/10/18 07:26:23;;;;;;;24.23;11.13;;;11.10;99.90;;;;;;5026672;28;20447;-66
2022/10/18 07:28:53;;;;;;;36.08;12.80;;;11.20;99.90;;;;;;5029867;28;20375;-66
2022/10/18 07:31:20;;;;;;;28.65;11.57;;;11.30;99.90;;;;;;5047957;28;20045;-66
2022/10/18 07:33:45;;;;;;;23.20;10.32;;;11.50;99.90;;;;;;5028999;28;20049;-66
2022/10/18 07:36:12;;;;;;;24.35;11.13;;;11.50;99.90;;;;;;5026386;28;20094;-66
2022/10/18 07:38:38;;;;;;;22.65;10.75;;;11.50;99.90;;;;;;5027552;28;20064;-65
2022/10/18 07:41:06;;;;;;;21.92;10.93;;;11.80;99.90;;;;;;5020857;28;20476;-66
2022/10/18 07:43:32;;;;;;;23.88;10.85;;;11.60;99.90;;;;;;5029608;28;20342;-65
2022/10/18 07:46:00;;;;;;;24.70;10.18;;;11.90;99.90;;;;;;5029710;28;20045;-66
2022/10/18 07:48:26;;;;;;;23.52;10.00;;;12.00;99.90;;;;;;5030462;28;20091;-66
2022/10/18 07:50:52;;;;;;;28.30;11.60;;;11.90;99.90;;;;;;5032474;28;20073;-66
2022/10/18 07:53:18;;;;;;;17.27;9.88;;;11.80;99.90;;;;;;5026928;28;20107;-66
2022/10/18 07:55:43;;;;;;;18.00;9.43;;;11.90;99.90;;;;;;5023180;28;20434;-65
2022/10/18 07:58:10;;;;;;;18.33;10.73;;;11.90;99.90;;;;;;5030115;28;20041;-66
2022/10/18 08:00:35;;;;;;;22.15;10.73;;;12.00;99.90;;;;;;5025983;28;20037;-65
2022/10/18 08:03:01;;;;;;;23.35;10.55;;;11.90;99.90;;;;;;5031088;28;20125;-65
2022/10/18 08:05:27;;;;;;;17.00;9.73;;;11.90;99.90;;;;;;5014521;28;20515;-66
2022/10/18 08:07:53;;;;;;;28.27;11.57;;;12.10;99.90;;;;;;5015049;28;20040;-65
2022/10/18 08:10:20;;;;;;;17.38;8.95;;;12.10;99.90;;;;;;5027240;28;20038;-65
2022/10/18 08:12:45;;;;;;;20.58;9.93;;;12.10;99.90;;;;;;5030989;28;20041;-65
2022/10/18 08:15:11;;;;;;;18.05;9.77;;;12.20;99.90;;;;;;5029914;28;20079;-65
2022/10/18 08:17:36;;;;;;;22.05;10.02;;;12.20;99.90;;;;;;5026742;28;20041;-65
2022/10/18 08:20:03;;;;;;;17.27;9.30;;;12.20;99.90;;;;;;5032097;28;20112;-65
2022/10/18 08:22:29;;;;;;;16.42;9.43;;;12.10;99.90;;;;;;5012580;28;20049;-65
2022/10/18 08:24:54;;;;;;;19.50;9.63;;;12.20;99.90;;;;;;5013768;28;20370;-66
2022/10/18 08:27:20;;;;;;;24.48;10.88;;;12.10;99.90;;;;;;5025028;28;20037;-65
2022/10/18 08:29:46;;;;;;;23.60;9.98;;;12.20;99.90;;;;;;5007944;28;20049;-65
2022/10/18 08:32:12;;;;;;;21.90;9.40;;;12.20;99.90;;;;;;5027096;28;20056;-65
2022/10/18 08:34:38;;;;;;;18.63;10.18;;;12.40;99.90;;;;;;5041772;28;20152;-65
2022/10/18 08:37:03;;;;;;;18.00;9.07;;;12.30;99.90;;;;;;5028629;28;20121;-65
2022/10/18 08:39:29;;;;;;;20.88;8.95;;;12.50;99.90;;;;;;5029436;28;20210;-65
2022/10/18 08:42:18;;;;;;;20.15;9.30;;;12.50;99.90;;;;;;5015049;28;20150;-66
2022/10/18 08:44:49;;;;;;;13.73;7.95;;;12.60;99.90;;;;;;5025659;28;20126;-66
2022/10/18 08:47:21;;;;;;;14.13;8.57;;;12.40;99.90;;;;;;5025947;28;20052;-66
2022/10/18 08:49:50;;;;;;;18.08;7.70;;;12.50;99.90;;;;;;5031727;28;20036;-66
2022/10/18 08:52:37;;;;;;;16.07;8.10;;;12.50;99.90;;;;;;5027524;28;20346;-66
2022/10/18 08:55:29;;;;;;;18.77;8.05;;;12.60;99.90;;;;;;5029675;28;20353;-66
2022/10/18 08:57:56;;;;;;;16.05;7.68;;;12.70;99.90;;;;;;5023071;28;20051;-65
2022/10/18 09:00:26;;;;;;;13.90;7.00;;;12.60;99.90;;;;;;5047352;28;20103;-66
2022/10/18 09:03:11;;;;;;;15.95;6.50;;;12.90;99.90;;;;;;5030631;28;20041;-66
2022/10/18 09:06:03;;;;;;;15.60;7.65;;;12.90;99.90;;;;;;5032800;28;20120;-65
2022/10/18 09:08:46;;;;;;;11.38;6.53;;;12.80;99.90;;;;;;5043495;28;20041;-65
2022/10/18 09:11:31;;;;;;;17.33;7.15;;;12.90;99.90;;;;;;5050107;28;20045;-66
2022/10/18 09:14:27;;;;;;;13.30;7.20;;;12.80;99.90;;;;;;5019923;28;20123;-65
2022/10/18 09:17:13;;;;;;;16.13;6.70;;;13.10;99.90;;;;;;5028053;28;20052;-65
2022/10/18 09:20:04;;;;;;;15.25;7.05;;;13.10;99.90;;;;;;5027576;28;20411;-65
2022/10/18 09:22:53;;;;;;;13.18;6.53;;;13.20;99.90;;;;;;5041123;28;20041;-66
2022/10/18 09:25:25;;;;;;;16.98;7.03;;;13.10;99.90;;;;;;5027814;28;20108;-66
2022/10/18 09:28:18;;;;;;;12.95;6.57;;;13.30;99.90;;;;;;5033880;28;20119;-65
2022/10/18 09:31:06;;;;;;;12.00;5.03;;;13.40;99.90;;;;;;5027982;28;20053;-65
2022/10/18 09:34:04;;;;;;;10.73;6.00;;;13.40;99.90;;;;;;5004963;28;20053;-66
2022/10/18 09:36:34;;;;;;;12.45;6.07;;;13.30;99.90;;;;;;5003266;28;20341;-66
2022/10/18 09:39:22;;;;;;;7.32;5.45;;;13.40;99.90;;;;;;5026757;28;20043;-66
2022/10/18 09:41:58;;;;;;;12.40;5.60;;;13.30;99.90;;;;;;5026286;28;20045;-65
2022/10/18 09:44:29;;;;;;;15.00;5.35;;;13.30;99.90;;;;;;5015527;28;20077;-66
2022/10/18 09:46:58;;;;;;;;;;;13.40;99.90;;;;;;5026902;28;20033;-66
2022/10/18 09:49:37;;;;;;;13.13;5.40;;;13.30;99.90;;;;;;5022281;28;20288;-66
2022/10/18 09:52:07;;;;;;;14.25;5.20;;;13.60;99.90;;;;;;5030574;28;20057;-65
2022/10/18 09:54:36;;;;;;;;;;;13.40;99.90;;;;;;5025132;28;20041;-66
2022/10/18 09:57:36;;;;;;;8.57;5.05;;;13.50;99.90;;;;;;5020027;28;20434;-65
2022/10/18 10:00:03;;;;;;;13.10;4.65;;;13.80;99.90;;;;;;5021958;28;20484;-65
2022/10/18 10:02:29;;;;;;;11.63;4.10;;;13.60;99.90;;;;;;5025630;28;20045;-66
2022/10/18 10:04:55;;;;;;;13.90;4.03;;;13.90;99.90;;;;;;5008544;28;20132;-66
2022/10/18 10:07:26;;;;;;;13.70;5.10;;;13.60;99.90;;;;;;5025979;28;20120;-66
2022/10/18 10:09:57;;;;;;;11.07;4.32;;;13.80;99.90;;;;;;5026988;28;20065;-66
2022/10/18 10:12:29;;;;;;;10.07;3.60;;;13.80;99.90;;;;;;5025053;28;20120;-66
2022/10/18 10:15:19;;;;;;;10.60;3.60;;;13.90;99.90;;;;;;5029597;28;20044;-66
2022/10/18 10:17:57;;;;;;;13.75;4.18;;;13.90;99.90;;;;;;5034223;28;20481;-67
2022/10/18 10:20:29;;;;;;;9.95;3.70;;;14.00;99.90;;;;;;5035800;28;20043;-67
2022/10/18 10:23:05;;;;;;;10.80;4.03;;;13.90;99.90;;;;;;5011443;28;20386;-66
2022/10/18 10:25:34;;;;;;;12.15;3.90;;;14.10;99.90;;;;;;5026934;28;20067;-66
2022/10/18 10:28:15;;;;;;;12.85;3.60;;;13.90;99.90;;;;;;5004915;28;20503;-66
2022/10/18 10:30:40;;;;;;;10.80;3.08;;;14.20;99.90;;;;;;5022866;28;20136;-67
2022/10/18 10:33:36;;;;;;;10.93;3.45;;;14.10;99.90;;;;;;5028008;28;20124;-66
2022/10/18 10:36:05;;;;;;;13.32;3.90;;;14.40;99.90;;;;;;5014358;28;20437;-67
2022/10/18 10:38:31;;;;;;;12.45;3.40;;;14.20;99.90;;;;;;5027322;28;20134;-66
2022/10/18 10:40:58;;;;;;;12.50;3.33;;;14.50;99.90;;;;;;5025517;28;20073;-66
2022/10/18 10:43:26;;;;;;;12.60;2.97;;;14.30;99.90;;;;;;5024555;28;20043;-66
2022/10/18 10:46:22;;;;;;;7.10;1.85;;;14.20;99.90;;;;;;5041520;28;20048;-67
2022/10/18 10:48:56;;;;;;;12.20;2.20;;;14.00;99.90;;;;;;5012725;28;20203;-66
2022/10/18 10:51:35;;;;;;;13.15;2.10;;;14.20;99.90;;;;;;5027659;28;20529;-65
2022/10/18 10:54:14;;;;;;;11.50;1.95;;;14.30;99.90;;;;;;5046401;28;20401;-65
2022/10/18 10:56:59;;;;;;;8.82;1.80;;;14.50;99.90;;;;;;5029794;28;20120;-65
2022/10/18 10:59:26;;;;;;;14.18;1.80;;;14.60;99.90;;;;;;5029910;28;20073;-67
2022/10/18 11:02:16;;;;;;;12.73;1.80;;;14.80;99.90;;;;;;5051780;28;20051;-66
2022/10/18 11:04:43;;;;;;;14.40;2.25;;;14.90;99.90;;;;;;5033679;28;20651;-67
2022/10/18 11:07:21;;;;;;;11.57;2.00;;;14.70;99.90;;;;;;5052542;28;20047;-66
2022/10/18 11:10:06;;;;;;;10.02;2.28;;;14.60;99.90;;;;;;5052514;28;20041;-66
2022/10/18 11:12:36;;;;;;;9.35;1.55;;;14.30;99.90;;;;;;5015993;28;20045;-64
2022/10/18 11:15:08;;;;;;;;;;;14.20;99.90;;;;;;5033518;28;20064;-64
2022/10/18 11:17:56;;;;;;;11.77;2.03;;;14.20;99.90;;;;;;5032199;28;20380;-64
2022/10/18 11:20:32;;;;;;;11.95;2.00;;;14.10;99.90;;;;;;5032501;28;20588;-64
2022/10/18 11:22:59;;;;;;;7.45;1.80;;;14.00;99.90;;;;;;5034695;28;20362;-63
2022/10/18 11:25:51;;;;;;;10.50;1.88;;;14.10;99.90;;;;;;5015063;28;20118;-64
2022/10/18 11:28:25;;;;;;;12.32;2.17;;;14.10;99.90;;;;;;5041220;28;20028;-64
2022/10/18 11:30:58;;;;;;;7.53;1.65;;;14.30;99.90;;;;;;5028025;28;20075;-64
2022/10/18 11:33:26;;;;;;;9.82;2.03;;;14.40;99.90;;;;;;5043306;28;20072;-64
2022/10/18 11:36:03;;;;;;;12.80;2.45;;;14.50;99.90;;;;;;5030208;28;20119;-64
2022/10/18 11:38:40;;;;;;;14.60;2.00;;;14.60;99.90;;;;;;5012085;28;20143;-64
2022/10/18 11:41:28;;;;;;;8.25;1.40;;;14.60;99.90;;;;;;5031279;28;20132;-64
2022/10/18 11:44:27;;;;;;;8.85;1.88;;;14.80;99.90;;;;;;5030517;28;20054;-64
2022/10/18 11:47:24;;;;;;;11.10;1.48;;;14.80;99.90;;;;;;5016959;28;20049;-64
2022/10/18 11:50:01;;;;;;;10.10;1.50;;;14.80;99.90;;;;;;5032634;28;20052;-64
2022/10/18 11:52:39;;;;;;;12.18;1.92;;;14.80;99.90;;;;;;5027742;28;20059;-64
2022/10/18 11:55:28;;;;;;;8.95;1.35;;;14.80;99.90;;;;;;5032381;28;20049;-64
2022/10/18 11:58:17;;;;;;;9.48;1.60;;;14.80;99.90;;;;;;5050789;28;20109;-64
2022/10/18 12:00:47;;;;;;;9.73;1.80;;;14.70;99.90;;;;;;5048433;28;20113;-65
2022/10/18 12:03:33;;;;;;;8.93;1.70;;;14.60;99.90;;;;;;5047452;28;20071;-63
2022/10/18 12:06:03;;;;;;;9.50;1.27;;;14.60;99.90;;;;;;5051270;28;20437;-65
2022/10/18 12:08:33;;;;;;;5.13;1.25;;;14.70;99.90;;;;;;5052085;28;20029;-64
2022/10/18 12:11:04;;;;;;;;;;;14.70;99.90;;;;;;5016653;28;20461;-65
2022/10/18 12:13:39;;;;;;;5.45;1.40;;;14.70;99.90;;;;;;5028789;28;19955;-65
2022/10/18 12:16:08;;;;;;;5.25;1.17;;;14.80;99.90;;;;;;5045782;28;20041;-65
2022/10/18 12:18:40;;;;;;;8.18;1.38;;;14.90;99.90;;;;;;5043387;28;20063;-64
2022/10/18 12:21:06;;;;;;;7.15;1.15;;;14.90;99.90;;;;;;5029072;28;20459;-64
2022/10/18 12:23:43;;;;;;;8.98;1.50;;;14.90;99.90;;;;;;5044062;28;20106;-65
2022/10/18 12:26:09;;;;;;;7.20;1.52;;;14.90;99.90;;;;;;5031391;28;20056;-64
2022/10/18 12:28:59;;;;;;;10.35;2.03;;;15.00;99.90;;;;;;5028232;28;20472;-65
2022/10/18 12:31:39;;;;;;;6.18;1.65;;;15.00;99.90;;;;;;5038085;28;20095;-65
2022/10/18 12:34:42;;;;;;;9.07;1.27;;;15.20;99.90;;;;;;5042724;28;20106;-65
2022/10/18 12:37:23;;;;;;;5.72;1.63;;;15.30;99.90;;;;;;5051376;28;20047;-65
2022/10/18 12:39:54;;;;;;;8.65;1.38;;;15.30;99.90;;;;;;5046311;28;20072;-65
2022/10/18 12:42:23;;;;;;;8.05;1.20;;;15.20;99.90;;;;;;5044386;28;20076;-65
2022/10/18 12:44:59;;;;;;;9.40;1.40;;;15.10;99.90;;;;;;5046951;28;20041;-66
2022/10/18 12:47:25;;;;;;;9.07;1.52;;;15.00;99.90;;;;;;5033948;28;20049;-65
2022/10/18 12:50:00;;;;;;;10.45;1.75;;;14.90;99.90;;;;;;5022735;28;20042;-65